Powell, WY

9:17 AM MDT on August 29, 2014 (GMT -0600)
Yellowstone Regional | Change Station
CLOSE
Current Station
Airport
Location: Cody,
Elevation: 5095 ft
Nearby Weather Stations

Elev 5095 ft 44.52 °N, 109.02 °W | Updated 22 minutes ago

Clear
Clear
55 °F
Feels Like 55 °F
N
10
Wind Variable Wind from NE

Today
High -- | Low -- °F
--% Chance of Precip.
Yesterday
High -- | Low -- °F
Precip. -- in
6:34 AM 7:57 PM
Waxing Crescent, 15% visible
Pressure 30.15 in
Visibility 10.0 miles
Clouds Clear
Dew Point 52 °F
Humidity 88%
Rainfall 0.00 in
Snow Depth Not available.
UV 2 out of 12
Pollen 6.90 out of 12
Air Quality Not available.
Flu Activity Not available.
METAR KCOD 291455Z 04009KT 10SM CLR 13/11 A3015 RMK AO1 52007

More Conditions Fewer Conditions

Pressure 30.15 in
Visibility 10.0 miles
Clouds Clear
Dew Point 52 °F
Humidity 88%
Rainfall 0.00 in
Snow Depth Not available.
UV 2 out of 12
Pollen 6.90 out of 12
Air Quality Not available.
Flu Activity Not available.
METAR KCOD 291455Z 04009KT 10SM CLR 13/11 A3015 RMK AO1 52007

More Conditions Fewer Conditions

10-Day Weather Forecast

Almanac

Astronomy

Aug. 29, 2014 Rise Set
Actual Time 6:34 AM MDT 7:57 PM MDT
Civil Twilight 6:03 AM MDT 8:27 PM MDT
Nautical Twilight 5:26 AM MDT 9:04 PM MDT
Astronomical Twilight 4:47 AM MDT 9:43 PM MDT
Moon 10:38 AM MDT 9:44 PM MDT
Length of Visible Light 14h 24m
Length of Day
13h 23m
Tomorrow will be 2m 58s shorter.
Waxing Crescent, 15% of the Moon is Illuminated
Today
Waxing Crescent
Sep 2
First Quarter
Sep 8
Full
Sep 15
Last Quarter
Sep 24
New

Today's Extremes

State Highs State Lows

Community

WunderPhotos

Upload Photos

1,748,265 photos uploaded!

Nearby

Snow Depth

Station Depth Elevation
Sylvan Lake 0 in 8420 ft
Base Camp 0 in 7030 ft
Lewis Lake Divide 0 in 7850 ft
Snake River Station 0 in 6920 ft
Gros Ventre Summit 1 in 8750 ft

Earthquake Activity

City Distance Mag. Time & Date
No recent earthquake activity has been reported nearby.
Minimum magnitude displayed is 2.5.

Coastal Water Temperatures

Place Temperature
No Stations Reporting

Nearby Weather Stations